sensor_id;sensor_type;location;lat;lon;timestamp;P1;durP1;ratioP1;P2;durP2;ratioP2
58412;SDS011;44209;52.952;6.790;2023-07-08T00:02:11;7.15;;;4.85;;
58412;SDS011;44209;52.952;6.790;2023-07-08T00:04:38;5.43;;;4.57;;
58412;SDS011;44209;52.952;6.790;2023-07-08T00:07:05;7.07;;;4.93;;
58412;SDS011;44209;52.952;6.790;2023-07-08T00:09:35;7.53;;;5.18;;
58412;SDS011;44209;52.952;6.790;2023-07-08T00:12:01;6.25;;;4.78;;
58412;SDS011;44209;52.952;6.790;2023-07-08T00:14:29;6.25;;;4.55;;
58412;SDS011;44209;52.952;6.790;2023-07-08T00:16:55;6.72;;;4.70;;
58412;SDS011;44209;52.952;6.790;2023-07-08T00:19:20;6.95;;;5.13;;
58412;SDS011;44209;52.952;6.790;2023-07-08T00:21:49;6.25;;;4.80;;
58412;SDS011;44209;52.952;6.790;2023-07-08T00:24:16;8.48;;;4.68;;
58412;SDS011;44209;52.952;6.790;2023-07-08T00:26:42;10.52;;;5.18;;
58412;SDS011;44209;52.952;6.790;2023-07-08T00:29:08;8.20;;;4.75;;
58412;SDS011;44209;52.952;6.790;2023-07-08T00:31:38;7.85;;;5.25;;
58412;SDS011;44209;52.952;6.790;2023-07-08T00:34:03;6.32;;;4.93;;
58412;SDS011;44209;52.952;6.790;2023-07-08T00:36:29;6.72;;;4.97;;
58412;SDS011;44209;52.952;6.790;2023-07-08T00:38:56;5.68;;;5.03;;
58412;SDS011;44209;52.952;6.790;2023-07-08T00:41:27;7.18;;;5.20;;
58412;SDS011;44209;52.952;6.790;2023-07-08T00:44:05;5.57;;;4.85;;
58412;SDS011;44209;52.952;6.790;2023-07-08T00:51:34;6.30;;;5.57;;
58412;SDS011;44209;52.952;6.790;2023-07-08T00:54:03;8.88;;;5.25;;
58412;SDS011;44209;52.952;6.790;2023-07-08T00:56:42;6.88;;;4.90;;
58412;SDS011;44209;52.952;6.790;2023-07-08T01:01:49;7.03;;;5.15;;
58412;SDS011;44209;52.952;6.790;2023-07-08T01:06:53;8.15;;;6.03;;
58412;SDS011;44209;52.952;6.790;2023-07-08T01:09:28;6.35;;;5.15;;
58412;SDS011;44209;52.952;6.790;2023-07-08T01:11:58;7.53;;;5.40;;
58412;SDS011;44209;52.952;6.790;2023-07-08T01:14:29;6.07;;;5.18;;
58412;SDS011;44209;52.952;6.790;2023-07-08T01:16:58;8.55;;;5.70;;
58412;SDS011;44209;52.952;6.790;2023-07-08T01:19:23;8.18;;;5.63;;
58412;SDS011;44209;52.952;6.790;2023-07-08T01:24:27;7.57;;;5.47;;
58412;SDS011;44209;52.952;6.790;2023-07-08T01:26:54;7.30;;;5.45;;
58412;SDS011;44209;52.952;6.790;2023-07-08T01:29:21;6.93;;;5.40;;
58412;SDS011;44209;52.952;6.790;2023-07-08T01:31:47;9.02;;;5.55;;
58412;SDS011;44209;52.952;6.790;2023-07-08T01:34:17;8.13;;;5.88;;
58412;SDS011;44209;52.952;6.790;2023-07-08T01:36:47;7.30;;;5.32;;
58412;SDS011;44209;52.952;6.790;2023-07-08T01:39:17;8.00;;;5.32;;
58412;SDS011;44209;52.952;6.790;2023-07-08T01:41:45;8.98;;;5.82;;
58412;SDS011;44209;52.952;6.790;2023-07-08T01:49:55;9.85;;;5.57;;
58412;SDS011;44209;52.952;6.790;2023-07-08T01:52:21;8.57;;;5.75;;
58412;SDS011;44209;52.952;6.790;2023-07-08T01:54:54;8.13;;;5.32;;
58412;SDS011;44209;52.952;6.790;2023-07-08T01:57:20;8.10;;;5.35;;
58412;SDS011;44209;52.952;6.790;2023-07-08T01:59:46;8.75;;;6.38;;
58412;SDS011;44209;52.952;6.790;2023-07-08T02:02:12;8.63;;;5.90;;
58412;SDS011;44209;52.952;6.790;2023-07-08T02:04:38;9.48;;;5.82;;
58412;SDS011;44209;52.952;6.790;2023-07-08T02:07:04;7.05;;;5.95;;
58412;SDS011;44209;52.952;6.790;2023-07-08T02:09:29;6.80;;;5.95;;
58412;SDS011;44209;52.952;6.790;2023-07-08T02:11:55;8.48;;;6.13;;
58412;SDS011;44209;52.952;6.790;2023-07-08T02:14:21;8.00;;;6.25;;
58412;SDS011;44209;52.952;6.790;2023-07-08T02:16:47;7.15;;;5.68;;
58412;SDS011;44209;52.952;6.790;2023-07-08T02:19:13;8.80;;;6.53;;
58412;SDS011;44209;52.952;6.790;2023-07-08T02:21:39;9.05;;;6.20;;
58412;SDS011;44209;52.952;6.790;2023-07-08T02:24:05;6.90;;;6.28;;
58412;SDS011;44209;52.952;6.790;2023-07-08T02:26:31;8.90;;;6.32;;
58412;SDS011;44209;52.952;6.790;2023-07-08T02:28:57;7.30;;;5.88;;
58412;SDS011;44209;52.952;6.790;2023-07-08T02:31:23;8.63;;;6.07;;
58412;SDS011;44209;52.952;6.790;2023-07-08T02:33:50;8.95;;;6.82;;
58412;SDS011;44209;52.952;6.790;2023-07-08T02:36:16;7.20;;;5.63;;
58412;SDS011;44209;52.952;6.790;2023-07-08T02:38:42;9.93;;;6.60;;
58412;SDS011;44209;52.952;6.790;2023-07-08T02:41:07;7.50;;;6.35;;
58412;SDS011;44209;52.952;6.790;2023-07-08T02:43:33;10.18;;;7.22;;
58412;SDS011;44209;52.952;6.790;2023-07-08T02:45:59;7.72;;;6.70;;
58412;SDS011;44209;52.952;6.790;2023-07-08T02:48:24;8.85;;;6.88;;
58412;SDS011;44209;52.952;6.790;2023-07-08T02:50:50;8.52;;;6.63;;
58412;SDS011;44209;52.952;6.790;2023-07-08T02:53:16;10.23;;;6.85;;
58412;SDS011;44209;52.952;6.790;2023-07-08T02:55:42;7.38;;;6.47;;
58412;SDS011;44209;52.952;6.790;2023-07-08T02:58:08;9.75;;;6.63;;
58412;SDS011;44209;52.952;6.790;2023-07-08T03:00:34;9.77;;;6.97;;
58412;SDS011;44209;52.952;6.790;2023-07-08T03:03:02;10.10;;;7.32;;
58412;SDS011;44209;52.952;6.790;2023-07-08T03:05:29;9.15;;;7.30;;
58412;SDS011;44209;52.952;6.790;2023-07-08T03:07:55;9.60;;;7.30;;
58412;SDS011;44209;52.952;6.790;2023-07-08T03:10:21;9.13;;;6.90;;
58412;SDS011;44209;52.952;6.790;2023-07-08T03:12:47;8.27;;;7.32;;
58412;SDS011;44209;52.952;6.790;2023-07-08T03:15:13;8.82;;;7.13;;
58412;SDS011;44209;52.952;6.790;2023-07-08T03:17:38;8.48;;;7.35;;
58412;SDS011;44209;52.952;6.790;2023-07-08T03:20:06;10.60;;;7.32;;
58412;SDS011;44209;52.952;6.790;2023-07-08T03:22:32;9.73;;;7.70;;
58412;SDS011;44209;52.952;6.790;2023-07-08T03:24:58;9.68;;;7.43;;
58412;SDS011;44209;52.952;6.790;2023-07-08T03:27:23;11.48;;;7.72;;
58412;SDS011;44209;52.952;6.790;2023-07-08T03:29:49;9.95;;;7.30;;
58412;SDS011;44209;52.952;6.790;2023-07-08T03:32:15;9.98;;;7.00;;
58412;SDS011;44209;52.952;6.790;2023-07-08T03:34:41;10.38;;;7.60;;
58412;SDS011;44209;52.952;6.790;2023-07-08T03:37:08;9.48;;;6.88;;
58412;SDS011;44209;52.952;6.790;2023-07-08T03:39:34;10.32;;;7.68;;
58412;SDS011;44209;52.952;6.790;2023-07-08T03:42:00;9.30;;;7.30;;
58412;SDS011;44209;52.952;6.790;2023-07-08T03:44:26;9.10;;;7.43;;
58412;SDS011;44209;52.952;6.790;2023-07-08T03:46:52;10.35;;;7.53;;
58412;SDS011;44209;52.952;6.790;2023-07-08T03:49:18;9.27;;;7.88;;
58412;SDS011;44209;52.952;6.790;2023-07-08T03:51:47;9.73;;;7.82;;
58412;SDS011;44209;52.952;6.790;2023-07-08T03:54:14;14.02;;;8.05;;
58412;SDS011;44209;52.952;6.790;2023-07-08T03:56:40;10.02;;;7.70;;
58412;SDS011;44209;52.952;6.790;2023-07-08T03:59:06;9.93;;;7.70;;
58412;SDS011;44209;52.952;6.790;2023-07-08T04:01:33;8.52;;;7.43;;
58412;SDS011;44209;52.952;6.790;2023-07-08T04:03:59;10.02;;;7.65;;
58412;SDS011;44209;52.952;6.790;2023-07-08T04:06:25;10.18;;;7.82;;
58412;SDS011;44209;52.952;6.790;2023-07-08T04:08:53;11.13;;;8.30;;
58412;SDS011;44209;52.952;6.790;2023-07-08T04:11:20;8.80;;;7.78;;
58412;SDS011;44209;52.952;6.790;2023-07-08T04:13:47;10.48;;;8.07;;
58412;SDS011;44209;52.952;6.790;2023-07-08T04:16:17;10.70;;;8.05;;
58412;SDS011;44209;52.952;6.790;2023-07-08T04:18:48;12.25;;;8.50;;
58412;SDS011;44209;52.952;6.790;2023-07-08T04:21:16;11.20;;;7.93;;
58412;SDS011;44209;52.952;6.790;2023-07-08T04:23:42;10.23;;;7.95;;
58412;SDS011;44209;52.952;6.790;2023-07-08T04:26:08;11.20;;;8.43;;
58412;SDS011;44209;52.952;6.790;2023-07-08T04:28:35;9.07;;;7.75;;
58412;SDS011;44209;52.952;6.790;2023-07-08T04:31:01;12.43;;;7.57;;
58412;SDS011;44209;52.952;6.790;2023-07-08T04:33:27;10.65;;;7.53;;
58412;SDS011;44209;52.952;6.790;2023-07-08T04:35:52;9.18;;;7.50;;
58412;SDS011;44209;52.952;6.790;2023-07-08T04:38:23;8.80;;;7.63;;
58412;SDS011;44209;52.952;6.790;2023-07-08T04:40:50;9.80;;;7.93;;
58412;SDS011;44209;52.952;6.790;2023-07-08T04:43:17;9.27;;;7.55;;
58412;SDS011;44209;52.952;6.790;2023-07-08T04:45:44;12.57;;;8.10;;
58412;SDS011;44209;52.952;6.790;2023-07-08T04:48:13;9.52;;;7.68;;
58412;SDS011;44209;52.952;6.790;2023-07-08T04:50:40;8.93;;;8.02;;
58412;SDS011;44209;52.952;6.790;2023-07-08T04:53:07;12.02;;;7.85;;
58412;SDS011;44209;52.952;6.790;2023-07-08T04:55:33;8.63;;;7.13;;
58412;SDS011;44209;52.952;6.790;2023-07-08T04:58:03;11.48;;;7.70;;
58412;SDS011;44209;52.952;6.790;2023-07-08T05:00:28;9.48;;;7.93;;
58412;SDS011;44209;52.952;6.790;2023-07-08T05:02:54;10.02;;;8.13;;
58412;SDS011;44209;52.952;6.790;2023-07-08T05:05:20;10.52;;;7.53;;
58412;SDS011;44209;52.952;6.790;2023-07-08T05:07:46;9.75;;;7.72;;
58412;SDS011;44209;52.952;6.790;2023-07-08T05:10:12;9.50;;;7.93;;
58412;SDS011;44209;52.952;6.790;2023-07-08T05:12:37;8.50;;;7.55;;
58412;SDS011;44209;52.952;6.790;2023-07-08T05:15:03;11.25;;;7.90;;
58412;SDS011;44209;52.952;6.790;2023-07-08T05:17:29;8.57;;;7.22;;
58412;SDS011;44209;52.952;6.790;2023-07-08T05:19:55;12.48;;;7.80;;
58412;SDS011;44209;52.952;6.790;2023-07-08T05:22:25;8.65;;;7.75;;
58412;SDS011;44209;52.952;6.790;2023-07-08T05:24:52;10.27;;;7.47;;
58412;SDS011;44209;52.952;6.790;2023-07-08T05:27:21;10.32;;;7.15;;
58412;SDS011;44209;52.952;6.790;2023-07-08T05:29:47;8.93;;;7.97;;
58412;SDS011;44209;52.952;6.790;2023-07-08T05:32:14;9.45;;;7.30;;
58412;SDS011;44209;52.952;6.790;2023-07-08T05:34:40;8.90;;;7.25;;
58412;SDS011;44209;52.952;6.790;2023-07-08T05:37:06;8.18;;;7.20;;
58412;SDS011;44209;52.952;6.790;2023-07-08T05:39:32;10.68;;;7.68;;
58412;SDS011;44209;52.952;6.790;2023-07-08T05:41:58;7.75;;;6.60;;
58412;SDS011;44209;52.952;6.790;2023-07-08T05:44:23;8.25;;;6.60;;
58412;SDS011;44209;52.952;6.790;2023-07-08T05:46:49;8.25;;;7.30;;
58412;SDS011;44209;52.952;6.790;2023-07-08T05:49:16;8.45;;;7.18;;
58412;SDS011;44209;52.952;6.790;2023-07-08T05:51:43;8.15;;;6.72;;
58412;SDS011;44209;52.952;6.790;2023-07-08T05:54:09;8.82;;;6.93;;
58412;SDS011;44209;52.952;6.790;2023-07-08T05:56:35;9.10;;;7.18;;
58412;SDS011;44209;52.952;6.790;2023-07-08T05:59:02;8.93;;;7.00;;
58412;SDS011;44209;52.952;6.790;2023-07-08T06:01:28;9.73;;;6.50;;
58412;SDS011;44209;52.952;6.790;2023-07-08T06:03:55;8.48;;;7.05;;
58412;SDS011;44209;52.952;6.790;2023-07-08T06:06:25;9.75;;;6.63;;
58412;SDS011;44209;52.952;6.790;2023-07-08T06:08:51;8.88;;;6.97;;
58412;SDS011;44209;52.952;6.790;2023-07-08T06:11:17;12.55;;;6.70;;
58412;SDS011;44209;52.952;6.790;2023-07-08T06:13:43;8.35;;;6.47;;
58412;SDS011;44209;52.952;6.790;2023-07-08T06:16:09;7.40;;;6.53;;
58412;SDS011;44209;52.952;6.790;2023-07-08T06:18:35;8.15;;;6.60;;
58412;SDS011;44209;52.952;6.790;2023-07-08T06:21:01;8.02;;;6.07;;
58412;SDS011;44209;52.952;6.790;2023-07-08T06:23:27;7.93;;;6.45;;
58412;SDS011;44209;52.952;6.790;2023-07-08T06:25:53;9.65;;;6.53;;
58412;SDS011;44209;52.952;6.790;2023-07-08T06:28:20;7.22;;;6.47;;
58412;SDS011;44209;52.952;6.790;2023-07-08T06:30:46;7.57;;;6.50;;
58412;SDS011;44209;52.952;6.790;2023-07-08T06:33:12;6.47;;;5.85;;
58412;SDS011;44209;52.952;6.790;2023-07-08T06:35:38;6.70;;;5.90;;
58412;SDS011;44209;52.952;6.790;2023-07-08T06:38:05;8.50;;;5.93;;
58412;SDS011;44209;52.952;6.790;2023-07-08T06:40:31;8.02;;;6.13;;
58412;SDS011;44209;52.952;6.790;2023-07-08T06:42:57;6.95;;;5.63;;
58412;SDS011;44209;52.952;6.790;2023-07-08T06:45:23;8.18;;;5.60;;
58412;SDS011;44209;52.952;6.790;2023-07-08T06:47:49;9.27;;;5.53;;
58412;SDS011;44209;52.952;6.790;2023-07-08T06:50:15;7.68;;;5.60;;
58412;SDS011;44209;52.952;6.790;2023-07-08T06:52:41;8.13;;;5.55;;
58412;SDS011;44209;52.952;6.790;2023-07-08T06:55:08;8.13;;;5.85;;
58412;SDS011;44209;52.952;6.790;2023-07-08T06:57:35;8.13;;;5.90;;
58412;SDS011;44209;52.952;6.790;2023-07-08T07:00:03;8.40;;;5.88;;
58412;SDS011;44209;52.952;6.790;2023-07-08T07:02:30;7.60;;;5.60;;
58412;SDS011;44209;52.952;6.790;2023-07-08T07:04:56;6.43;;;5.45;;
58412;SDS011;44209;52.952;6.790;2023-07-08T07:07:22;10.00;;;6.00;;
58412;SDS011;44209;52.952;6.790;2023-07-08T07:09:48;7.75;;;5.97;;
58412;SDS011;44209;52.952;6.790;2023-07-08T07:12:13;7.75;;;6.03;;
58412;SDS011;44209;52.952;6.790;2023-07-08T07:14:39;6.13;;;5.50;;
58412;SDS011;44209;52.952;6.790;2023-07-08T07:17:05;6.75;;;5.50;;
58412;SDS011;44209;52.952;6.790;2023-07-08T07:19:30;6.38;;;5.20;;
58412;SDS011;44209;52.952;6.790;2023-07-08T07:21:56;6.43;;;5.38;;
58412;SDS011;44209;52.952;6.790;2023-07-08T07:24:22;8.95;;;5.50;;
58412;SDS011;44209;52.952;6.790;2023-07-08T07:26:47;6.15;;;5.22;;
58412;SDS011;44209;52.952;6.790;2023-07-08T07:29:16;5.90;;;5.10;;
58412;SDS011;44209;52.952;6.790;2023-07-08T07:31:43;7.72;;;5.38;;
58412;SDS011;44209;52.952;6.790;2023-07-08T07:34:10;7.22;;;5.25;;
58412;SDS011;44209;52.952;6.790;2023-07-08T07:36:37;6.07;;;5.47;;
58412;SDS011;44209;52.952;6.790;2023-07-08T07:39:02;7.57;;;5.15;;
58412;SDS011;44209;52.952;6.790;2023-07-08T07:41:28;5.65;;;5.00;;
58412;SDS011;44209;52.952;6.790;2023-07-08T07:43:54;7.28;;;4.97;;
58412;SDS011;44209;52.952;6.790;2023-07-08T07:46:19;5.50;;;4.95;;
58412;SDS011;44209;52.952;6.790;2023-07-08T07:48:46;5.75;;;5.25;;
58412;SDS011;44209;52.952;6.790;2023-07-08T07:51:12;6.57;;;4.82;;
58412;SDS011;44209;52.952;6.790;2023-07-08T07:53:38;5.32;;;4.50;;
58412;SDS011;44209;52.952;6.790;2023-07-08T07:56:05;7.00;;;5.03;;
58412;SDS011;44209;52.952;6.790;2023-07-08T07:58:31;5.55;;;4.63;;
58412;SDS011;44209;52.952;6.790;2023-07-08T08:00:57;6.57;;;4.70;;
58412;SDS011;44209;52.952;6.790;2023-07-08T08:03:23;7.65;;;5.32;;
58412;SDS011;44209;52.952;6.790;2023-07-08T08:05:49;7.32;;;5.10;;
58412;SDS011;44209;52.952;6.790;2023-07-08T08:08:14;5.90;;;5.38;;
58412;SDS011;44209;52.952;6.790;2023-07-08T08:10:41;7.65;;;5.07;;
58412;SDS011;44209;52.952;6.790;2023-07-08T08:13:07;7.55;;;4.88;;
58412;SDS011;44209;52.952;6.790;2023-07-08T08:15:34;5.75;;;5.18;;
58412;SDS011;44209;52.952;6.790;2023-07-08T08:18:00;7.13;;;5.40;;
58412;SDS011;44209;52.952;6.790;2023-07-08T08:20:27;9.32;;;5.75;;
58412;SDS011;44209;52.952;6.790;2023-07-08T08:22:53;6.05;;;4.90;;
58412;SDS011;44209;52.952;6.790;2023-07-08T08:25:20;5.28;;;4.78;;
58412;SDS011;44209;52.952;6.790;2023-07-08T08:27:47;5.88;;;4.72;;
58412;SDS011;44209;52.952;6.790;2023-07-08T08:30:12;5.05;;;4.55;;
58412;SDS011;44209;52.952;6.790;2023-07-08T08:32:38;8.13;;;5.05;;
58412;SDS011;44209;52.952;6.790;2023-07-08T08:35:04;5.18;;;4.68;;
58412;SDS011;44209;52.952;6.790;2023-07-08T08:37:30;5.13;;;4.63;;
58412;SDS011;44209;52.952;6.790;2023-07-08T08:39:56;5.82;;;4.65;;
58412;SDS011;44209;52.952;6.790;2023-07-08T08:42:38;5.07;;;4.40;;
58412;SDS011;44209;52.952;6.790;2023-07-08T08:45:07;5.63;;;4.47;;
58412;SDS011;44209;52.952;6.790;2023-07-08T08:47:44;9.38;;;5.00;;
58412;SDS011;44209;52.952;6.790;2023-07-08T08:52:44;5.63;;;4.82;;
58412;SDS011;44209;52.952;6.790;2023-07-08T08:55:13;6.30;;;4.82;;
58412;SDS011;44209;52.952;6.790;2023-07-08T08:57:54;6.03;;;4.85;;
58412;SDS011;44209;52.952;6.790;2023-07-08T09:00:56;6.75;;;4.90;;
58412;SDS011;44209;52.952;6.790;2023-07-08T09:06:23;5.63;;;5.03;;
58412;SDS011;44209;52.952;6.790;2023-07-08T09:08:53;5.95;;;4.88;;
58412;SDS011;44209;52.952;6.790;2023-07-08T09:11:42;5.72;;;5.22;;
58412;SDS011;44209;52.952;6.790;2023-07-08T09:14:35;5.85;;;5.07;;
58412;SDS011;44209;52.952;6.790;2023-07-08T09:22:56;7.55;;;5.05;;
58412;SDS011;44209;52.952;6.790;2023-07-08T09:25:47;7.38;;;5.10;;
58412;SDS011;44209;52.952;6.790;2023-07-08T09:28:19;7.45;;;5.10;;
58412;SDS011;44209;52.952;6.790;2023-07-08T09:30:46;6.88;;;5.13;;
58412;SDS011;44209;52.952;6.790;2023-07-08T09:33:13;4.82;;;4.43;;
58412;SDS011;44209;52.952;6.790;2023-07-08T09:35:40;6.75;;;4.72;;
58412;SDS011;44209;52.952;6.790;2023-07-08T09:38:09;8.07;;;5.20;;
58412;SDS011;44209;52.952;6.790;2023-07-08T09:40:39;5.22;;;4.72;;
58412;SDS011;44209;52.952;6.790;2023-07-08T09:43:15;7.65;;;5.25;;
58412;SDS011;44209;52.952;6.790;2023-07-08T09:45:45;5.57;;;4.70;;
58412;SDS011;44209;52.952;6.790;2023-07-08T09:48:23;5.88;;;5.28;;
58412;SDS011;44209;52.952;6.790;2023-07-08T09:50:52;7.35;;;4.75;;
58412;SDS011;44209;52.952;6.790;2023-07-08T09:53:18;7.50;;;5.18;;
58412;SDS011;44209;52.952;6.790;2023-07-08T09:55:45;6.00;;;5.20;;
58412;SDS011;44209;52.952;6.790;2023-07-08T09:58:12;5.63;;;4.97;;
58412;SDS011;44209;52.952;6.790;2023-07-08T10:00:43;5.55;;;5.03;;
58412;SDS011;44209;52.952;6.790;2023-07-08T10:03:30;5.35;;;4.85;;
58412;SDS011;44209;52.952;6.790;2023-07-08T10:05:59;5.72;;;4.93;;
58412;SDS011;44209;52.952;6.790;2023-07-08T10:08:39;7.97;;;5.43;;
58412;SDS011;44209;52.952;6.790;2023-07-08T10:13:59;7.35;;;5.13;;
58412;SDS011;44209;52.952;6.790;2023-07-08T10:16:31;7.38;;;4.88;;
58412;SDS011;44209;52.952;6.790;2023-07-08T10:18:58;9.40;;;4.50;;
58412;SDS011;44209;52.952;6.790;2023-07-08T10:27:08;6.47;;;5.10;;
58412;SDS011;44209;52.952;6.790;2023-07-08T10:35:22;6.95;;;5.13;;
58412;SDS011;44209;52.952;6.790;2023-07-08T10:48:56;6.97;;;4.88;;
58412;SDS011;44209;52.952;6.790;2023-07-08T11:00:02;6.80;;;4.47;;
58412;SDS011;44209;52.952;6.790;2023-07-08T11:02:56;5.25;;;4.45;;
58412;SDS011;44209;52.952;6.790;2023-07-08T11:05:28;6.40;;;4.70;;
58412;SDS011;44209;52.952;6.790;2023-07-08T11:08:22;7.85;;;4.68;;
58412;SDS011;44209;52.952;6.790;2023-07-08T11:10:53;6.13;;;4.50;;
58412;SDS011;44209;52.952;6.790;2023-07-08T11:13:24;5.20;;;3.97;;
58412;SDS011;44209;52.952;6.790;2023-07-08T11:15:57;5.18;;;3.97;;
58412;SDS011;44209;52.952;6.790;2023-07-08T11:18:59;5.68;;;4.70;;
58412;SDS011;44209;52.952;6.790;2023-07-08T11:21:41;4.53;;;4.13;;
58412;SDS011;44209;52.952;6.790;2023-07-08T11:32:21;6.10;;;4.22;;
58412;SDS011;44209;52.952;6.790;2023-07-08T11:34:51;5.63;;;4.47;;
58412;SDS011;44209;52.952;6.790;2023-07-08T11:37:18;6.80;;;4.25;;
58412;SDS011;44209;52.952;6.790;2023-07-08T11:39:47;6.95;;;4.20;;
58412;SDS011;44209;52.952;6.790;2023-07-08T11:42:21;6.03;;;4.15;;
58412;SDS011;44209;52.952;6.790;2023-07-08T11:45:15;4.47;;;3.85;;
58412;SDS011;44209;52.952;6.790;2023-07-08T11:48:10;5.53;;;4.38;;
58412;SDS011;44209;52.952;6.790;2023-07-08T11:50:42;4.63;;;4.15;;
58412;SDS011;44209;52.952;6.790;2023-07-08T11:53:12;5.50;;;4.30;;
58412;SDS011;44209;52.952;6.790;2023-07-08T11:55:56;8.30;;;4.03;;
58412;SDS011;44209;52.952;6.790;2023-07-08T12:01:46;7.55;;;4.78;;
58412;SDS011;44209;52.952;6.790;2023-07-08T12:04:16;4.68;;;4.25;;
58412;SDS011;44209;52.952;6.790;2023-07-08T12:06:43;5.57;;;4.28;;
58412;SDS011;44209;52.952;6.790;2023-07-08T12:09:14;6.45;;;4.30;;
58412;SDS011;44209;52.952;6.790;2023-07-08T12:11:59;7.18;;;4.43;;
58412;SDS011;44209;52.952;6.790;2023-07-08T12:14:28;6.78;;;4.70;;
58412;SDS011;44209;52.952;6.790;2023-07-08T12:16:55;5.07;;;4.65;;
58412;SDS011;44209;52.952;6.790;2023-07-08T12:19:21;5.95;;;4.47;;
58412;SDS011;44209;52.952;6.790;2023-07-08T12:21:50;7.10;;;4.32;;
58412;SDS011;44209;52.952;6.790;2023-07-08T12:24:17;5.70;;;4.65;;
58412;SDS011;44209;52.952;6.790;2023-07-08T12:26:43;5.72;;;4.40;;
58412;SDS011;44209;52.952;6.790;2023-07-08T12:29:12;4.82;;;4.32;;
58412;SDS011;44209;52.952;6.790;2023-07-08T12:31:39;6.43;;;5.10;;
58412;SDS011;44209;52.952;6.790;2023-07-08T12:34:10;6.00;;;4.97;;
58412;SDS011;44209;52.952;6.790;2023-07-08T12:36:42;7.35;;;4.78;;
58412;SDS011;44209;52.952;6.790;2023-07-08T12:39:18;9.52;;;4.88;;
58412;SDS011;44209;52.952;6.790;2023-07-08T12:41:45;5.45;;;4.80;;
58412;SDS011;44209;52.952;6.790;2023-07-08T12:44:14;7.72;;;5.00;;
58412;SDS011;44209;52.952;6.790;2023-07-08T12:46:47;5.60;;;5.05;;
58412;SDS011;44209;52.952;6.790;2023-07-08T12:49:14;5.70;;;4.60;;
58412;SDS011;44209;52.952;6.790;2023-07-08T12:51:42;5.68;;;5.00;;
58412;SDS011;44209;52.952;6.790;2023-07-08T12:54:09;5.75;;;4.72;;
58412;SDS011;44209;52.952;6.790;2023-07-08T12:56:35;6.15;;;5.18;;
58412;SDS011;44209;52.952;6.790;2023-07-08T12:59:03;5.70;;;5.10;;
58412;SDS011;44209;52.952;6.790;2023-07-08T13:01:31;7.15;;;5.38;;
58412;SDS011;44209;52.952;6.790;2023-07-08T13:04:01;9.15;;;5.72;;
58412;SDS011;44209;52.952;6.790;2023-07-08T13:06:30;6.30;;;5.55;;
58412;SDS011;44209;52.952;6.790;2023-07-08T13:09:00;5.85;;;5.25;;
58412;SDS011;44209;52.952;6.790;2023-07-08T13:12:05;5.75;;;5.20;;
58412;SDS011;44209;52.952;6.790;2023-07-08T13:14:48;6.85;;;5.60;;
58412;SDS011;44209;52.952;6.790;2023-07-08T13:17:14;8.18;;;5.43;;
58412;SDS011;44209;52.952;6.790;2023-07-08T13:19:41;6.40;;;5.72;;
58412;SDS011;44209;52.952;6.790;2023-07-08T13:22:15;6.55;;;5.60;;
58412;SDS011;44209;52.952;6.790;2023-07-08T13:24:43;5.97;;;5.05;;
58412;SDS011;44209;52.952;6.790;2023-07-08T13:27:14;8.60;;;6.18;;
58412;SDS011;44209;52.952;6.790;2023-07-08T13:29:53;6.03;;;5.28;;
58412;SDS011;44209;52.952;6.790;2023-07-08T13:32:19;10.05;;;6.03;;
58412;SDS011;44209;52.952;6.790;2023-07-08T13:34:48;8.48;;;5.90;;
58412;SDS011;44209;52.952;6.790;2023-07-08T13:37:15;10.95;;;6.05;;
58412;SDS011;44209;52.952;6.790;2023-07-08T13:39:46;7.70;;;5.97;;
58412;SDS011;44209;52.952;6.790;2023-07-08T13:42:12;7.63;;;5.25;;
58412;SDS011;44209;52.952;6.790;2023-07-08T13:44:45;6.97;;;5.35;;
58412;SDS011;44209;52.952;6.790;2023-07-08T13:47:28;6.43;;;5.55;;
58412;SDS011;44209;52.952;6.790;2023-07-08T13:50:04;8.27;;;6.10;;
58412;SDS011;44209;52.952;6.790;2023-07-08T13:52:43;6.35;;;5.47;;
58412;SDS011;44209;52.952;6.790;2023-07-08T13:55:12;6.43;;;5.63;;
58412;SDS011;44209;52.952;6.790;2023-07-08T13:57:43;11.95;;;6.15;;
58412;SDS011;44209;52.952;6.790;2023-07-08T14:00:10;7.35;;;5.90;;
58412;SDS011;44209;52.952;6.790;2023-07-08T14:02:36;8.60;;;5.82;;
58412;SDS011;44209;52.952;6.790;2023-07-08T14:05:08;7.78;;;5.97;;
58412;SDS011;44209;52.952;6.790;2023-07-08T14:07:36;7.68;;;5.82;;
58412;SDS011;44209;52.952;6.790;2023-07-08T14:10:04;8.60;;;6.25;;
58412;SDS011;44209;52.952;6.790;2023-07-08T14:12:37;8.15;;;6.10;;
58412;SDS011;44209;52.952;6.790;2023-07-08T14:15:02;8.80;;;6.47;;
58412;SDS011;44209;52.952;6.790;2023-07-08T14:17:28;6.40;;;5.55;;
58412;SDS011;44209;52.952;6.790;2023-07-08T14:19:54;10.30;;;6.75;;
58412;SDS011;44209;52.952;6.790;2023-07-08T14:22:29;7.80;;;6.32;;
58412;SDS011;44209;52.952;6.790;2023-07-08T14:24:56;8.55;;;6.50;;
58412;SDS011;44209;52.952;6.790;2023-07-08T14:27:28;8.32;;;6.13;;
58412;SDS011;44209;52.952;6.790;2023-07-08T14:29:54;6.68;;;5.85;;
58412;SDS011;44209;52.952;6.790;2023-07-08T14:32:21;7.65;;;6.32;;
58412;SDS011;44209;52.952;6.790;2023-07-08T14:34:52;7.80;;;6.45;;
58412;SDS011;44209;52.952;6.790;2023-07-08T14:37:20;7.50;;;5.78;;
58412;SDS011;44209;52.952;6.790;2023-07-08T14:39:46;8.68;;;6.10;;
58412;SDS011;44209;52.952;6.790;2023-07-08T14:42:13;9.13;;;5.95;;
58412;SDS011;44209;52.952;6.790;2023-07-08T14:44:43;8.15;;;6.47;;
58412;SDS011;44209;52.952;6.790;2023-07-08T14:47:13;6.80;;;6.00;;
58412;SDS011;44209;52.952;6.790;2023-07-08T14:49:43;9.07;;;5.90;;
58412;SDS011;44209;52.952;6.790;2023-07-08T14:52:09;8.18;;;5.85;;
58412;SDS011;44209;52.952;6.790;2023-07-08T14:54:35;7.10;;;6.40;;
58412;SDS011;44209;52.952;6.790;2023-07-08T14:57:01;7.47;;;6.05;;
58412;SDS011;44209;52.952;6.790;2023-07-08T14:59:30;7.97;;;5.85;;
58412;SDS011;44209;52.952;6.790;2023-07-08T15:01:58;8.00;;;6.43;;
58412;SDS011;44209;52.952;6.790;2023-07-08T15:04:25;8.50;;;6.25;;
58412;SDS011;44209;52.952;6.790;2023-07-08T15:06:52;7.32;;;5.88;;
58412;SDS011;44209;52.952;6.790;2023-07-08T15:09:19;7.05;;;6.35;;
58412;SDS011;44209;52.952;6.790;2023-07-08T15:11:45;7.72;;;6.78;;
58412;SDS011;44209;52.952;6.790;2023-07-08T15:14:19;7.43;;;5.93;;
58412;SDS011;44209;52.952;6.790;2023-07-08T15:16:47;8.15;;;6.55;;
58412;SDS011;44209;52.952;6.790;2023-07-08T15:19:14;6.63;;;5.93;;
58412;SDS011;44209;52.952;6.790;2023-07-08T15:21:40;8.50;;;6.05;;
58412;SDS011;44209;52.952;6.790;2023-07-08T15:24:09;9.02;;;6.20;;
58412;SDS011;44209;52.952;6.790;2023-07-08T15:26:41;7.10;;;6.25;;
58412;SDS011;44209;52.952;6.790;2023-07-08T15:29:19;6.82;;;5.93;;
58412;SDS011;44209;52.952;6.790;2023-07-08T15:31:47;7.55;;;6.47;;
58412;SDS011;44209;52.952;6.790;2023-07-08T15:34:13;6.97;;;6.07;;
58412;SDS011;44209;52.952;6.790;2023-07-08T15:36:41;7.20;;;6.38;;
58412;SDS011;44209;52.952;6.790;2023-07-08T15:39:06;7.38;;;6.25;;
58412;SDS011;44209;52.952;6.790;2023-07-08T15:41:33;8.15;;;6.28;;
58412;SDS011;44209;52.952;6.790;2023-07-08T15:44:00;7.78;;;6.43;;
58412;SDS011;44209;52.952;6.790;2023-07-08T15:46:31;7.40;;;5.93;;
58412;SDS011;44209;52.952;6.790;2023-07-08T15:48:58;7.70;;;6.00;;
58412;SDS011;44209;52.952;6.790;2023-07-08T15:51:24;6.43;;;5.70;;
58412;SDS011;44209;52.952;6.790;2023-07-08T15:53:50;7.18;;;5.70;;
58412;SDS011;44209;52.952;6.790;2023-07-08T15:56:18;7.32;;;6.43;;
58412;SDS011;44209;52.952;6.790;2023-07-08T15:58:45;6.93;;;5.75;;
58412;SDS011;44209;52.952;6.790;2023-07-08T16:01:18;7.97;;;6.15;;
58412;SDS011;44209;52.952;6.790;2023-07-08T16:03:46;6.95;;;5.55;;
58412;SDS011;44209;52.952;6.790;2023-07-08T16:06:13;23.75;;;7.97;;
58412;SDS011;44209;52.952;6.790;2023-07-08T16:08:39;7.35;;;5.90;;
58412;SDS011;44209;52.952;6.790;2023-07-08T16:11:10;6.90;;;6.20;;